Time;durP1;ratioP1;P1;durP2;ratioP2;P2;SDS_P1;SDS_P2;PMS_P1;PMS_P2;Temp;Humidity;BMP_temperature;BMP_pressure;BME280_temperature;BME280_humidity;BME280_pressure;Samples;Min_cycle;Max_cycle;Signal;HPM_P1;HPM_P2
2022/02/24 00:00:02;;;;;;;;;;;;;;;;;;4896275;29;19996;-79
2022/02/24 00:02:29;;;;;;;;;;;;;;;;;;4896541;29;19948;-79
2022/02/24 00:04:55;;;;;;;;;;;;;;;;;;4896436;29;19945;-79
2022/02/24 00:07:21;;;;;;;;;;;;;;;;;;4896460;29;19992;-77
2022/02/24 00:09:47;;;;;;;;;;;;;;;;;;4880770;29;19947;-79
2022/02/24 00:12:13;;;;;;;;;;;;;;;;;;4895545;29;19957;-78
2022/02/24 00:14:39;;;;;;;;;;;;;;;;;;4896171;29;19948;-77
2022/02/24 00:17:07;;;;;;;;;;;;;;;;;;4895340;29;20053;-79
2022/02/24 00:19:33;;;;;;;;;;;;;;;;;;4880823;29;19952;-81
2022/02/24 00:21:59;;;;;;;;;;;;;;;;;;4879876;29;19966;-77
2022/02/24 00:24:25;;;;;;;;;;;;;;;;;;4895808;29;20002;-77
2022/02/24 00:26:51;;;;;;;;;;;;;;;;;;4896048;29;19948;-77
2022/02/24 00:29:17;;;;;;;;;;;;;;;;;;4895988;29;20038;-77
2022/02/24 00:31:43;;;;;;;;;;;;;;;;;;4896035;29;19947;-77
2022/02/24 00:34:09;;;;;;;;;;;;;;;;;;4879432;29;20047;-77
2022/02/24 00:36:35;;;;;;;;;;;;;;;;;;4896256;29;19962;-77
2022/02/24 00:39:01;;;;;;;;;;;;;;;;;;4895970;29;19949;-76
2022/02/24 00:41:27;;;;;;;;;;;;;;;;;;4896397;29;19950;-76
2022/02/24 00:43:53;;;;;;;;;;;;;;;;;;4880682;29;19952;-76
2022/02/24 00:46:18;;;;;;;;;;;;;;;;;;4896225;29;19944;-76
2022/02/24 00:48:44;;;;;;;;;;;;;;;;;;4877921;29;20040;-76
2022/02/24 00:51:10;;;;;;;;;;;;;;;;;;4879575;29;20354;-76
2022/02/24 00:53:41;;;;;;;;;;;;;;;;;;4880697;29;20437;-77
2022/02/24 00:56:07;;;;;;;;;;;;;;;;;;4864720;29;19964;-76
2022/02/24 00:58:33;;;;;;;;;;;;;;;;;;4880539;29;20078;-76
2022/02/24 01:00:59;;;;;;;;;;;;;;;;;;4864936;29;19948;-76
2022/02/24 01:03:25;;;;;;;;;;;;;;;;;;4864436;29;19948;-77
2022/02/24 01:05:51;;;;;;;;;;;;;;;;;;4880920;29;19952;-77
2022/02/24 01:08:17;;;;;;;;;;;;;;;;;;4864579;29;19946;-76
2022/02/24 01:10:42;;;;;;;;;;;;;;;;;;4880506;29;20377;-76
2022/02/24 01:13:08;;;;;;;;;;;;;;;;;;4880471;29;19999;-75
2022/02/24 01:15:38;;;;;;;;;;;;;;;;;;4879605;29;20037;-76
2022/02/24 01:18:04;;;;;;;;;;;;;;;;;;4880026;29;19945;-76
2022/02/24 01:20:30;;;;;;;;;;;;;;;;;;4880826;29;20343;-77
2022/02/24 01:22:56;;;;;;;;;;;;;;;;;;4879989;29;19944;-76
2022/02/24 01:25:22;;;;;;;;;;;;;;;;;;4879995;29;19974;-76
2022/02/24 01:27:48;;;;;;;;;;;;;;;;;;4880124;29;20044;-76
2022/02/24 01:30:14;;;;;;;;;;;;;;;;;;4863327;29;20420;-76
2022/02/24 01:32:40;;;;;;;;;;;;;;;;;;4880265;29;20000;-76
2022/02/24 01:35:06;;;;;;;;;;;;;;;;;;4895748;29;20320;-76
2022/02/24 01:37:32;;;;;;;;;;;;;;;;;;4879565;29;19953;-76
2022/02/24 01:39:58;;;;;;;;;;;;;;;;;;4880261;29;19957;-76
2022/02/24 01:42:24;;;;;;;;;;;;;;;;;;4879426;29;19951;-76
2022/02/24 01:44:50;;;;;;;;;;;;;;;;;;4880054;29;19949;-76
2022/02/24 01:47:15;;;;;;;;;;;;;;;;;;4864090;29;19949;-75
2022/02/24 01:49:42;;;;;;;;;;;;;;;;;;4889193;29;20072;-76
2022/02/24 01:52:08;;;;;;;;;;;;;;;;;;4894901;29;20041;-76
2022/02/24 01:54:34;;;;;;;;;;;;;;;;;;4879888;29;20390;-76
2022/02/24 01:57:00;;;;;;;;;;;;;;;;;;4894683;29;20012;-76
2022/02/24 01:59:26;;;;;;;;;;;;;;;;;;4894771;29;20260;-76
2022/02/24 02:01:52;;;;;;;;;;;;;;;;;;4894983;29;19949;-76
2022/02/24 02:04:18;;;;;;;;;;;;;;;;;;4898053;29;19949;-76
2022/02/24 02:06:44;;;;;;;;;;;;;;;;;;4882878;29;19974;-76
2022/02/24 02:09:10;;;;;;;;;;;;;;;;;;4882270;29;19949;-75
2022/02/24 02:11:35;;;;;;;;;;;;;;;;;;4898363;29;19946;-75
2022/02/24 02:14:01;;;;;;;;;;;;;;;;;;4898437;29;19977;-75
2022/02/24 02:16:27;;;;;;;;;;;;;;;;;;4897826;29;20366;-76
2022/02/24 02:18:53;;;;;;;;;;;;;;;;;;4898264;29;19952;-76
2022/02/24 02:21:19;;;;;;;;;;;;;;;;;;4898054;29;19953;-76
2022/02/24 02:23:45;;;;;;;;;;;;;;;;;;4898432;29;20042;-76
2022/02/24 02:26:11;;;;;;;;;;;;;;;;;;4897498;29;19944;-76
2022/02/24 02:28:37;;;;;;;;;;;;;;;;;;4898374;29;19943;-76
2022/02/24 02:31:04;;;;;;;;;;;;;;;;;;4881849;29;20433;-76
2022/02/24 02:33:29;;;;;;;;;;;;;;;;;;4880402;29;19971;-76
2022/02/24 02:35:55;;;;;;;;;;;;;;;;;;4897756;29;20065;-76
2022/02/24 02:38:21;;;;;;;;;;;;;;;;;;4882368;29;20001;-76
2022/02/24 02:40:47;;;;;;;;;;;;;;;;;;4897554;29;19954;-76
2022/02/24 02:43:13;;;;;;;;;;;;;;;;;;4897423;29;19955;-76
2022/02/24 02:45:39;;;;;;;;;;;;;;;;;;4897921;29;19950;-76
2022/02/24 02:48:06;;;;;;;;;;;;;;;;;;4898816;29;19996;-76
2022/02/24 02:50:32;;;;;;;;;;;;;;;;;;4900635;29;19954;-76
2022/02/24 02:52:57;;;;;;;;;;;;;;;;;;4885176;29;20383;-76
2022/02/24 02:55:23;;;;;;;;;;;;;;;;;;4900123;29;19957;-76
2022/02/24 02:57:49;;;;;;;;;;;;;;;;;;4900487;29;20006;-76
2022/02/24 03:00:15;;;;;;;;;;;;;;;;;;4900628;29;19950;-76
2022/02/24 03:02:41;;;;;;;;;;;;;;;;;;4885736;29;19959;-76
2022/02/24 03:05:07;;;;;;;;;;;;;;;;;;4900944;29;20138;-76
2022/02/24 03:07:33;;;;;;;;;;;;;;;;;;4900298;29;20364;-76
2022/02/24 03:09:59;;;;;;;;;;;;;;;;;;4900959;29;20388;-76
2022/02/24 03:12:25;;;;;;;;;;;;;;;;;;4900901;29;19945;-76
2022/02/24 03:14:51;;;;;;;;;;;;;;;;;;4900687;29;20046;-76
2022/02/24 03:17:17;;;;;;;;;;;;;;;;;;4900463;29;19943;-76
2022/02/24 03:19:43;;;;;;;;;;;;;;;;;;4898942;29;19953;-76
2022/02/24 03:22:09;;;;;;;;;;;;;;;;;;4900187;29;19952;-77
2022/02/24 03:24:35;;;;;;;;;;;;;;;;;;4900036;29;19941;-76
2022/02/24 03:27:01;;;;;;;;;;;;;;;;;;4900113;29;19948;-76
2022/02/24 03:29:26;;;;;;;;;;;;;;;;;;4900182;29;19944;-76
2022/02/24 03:31:52;;;;;;;;;;;;;;;;;;4884360;29;19950;-76
2022/02/24 03:34:18;;;;;;;;;;;;;;;;;;4899856;29;20011;-76
2022/02/24 03:36:44;;;;;;;;;;;;;;;;;;4899536;29;19962;-76
2022/02/24 03:39:10;;;;;;;;;;;;;;;;;;4884193;29;20092;-76
2022/02/24 03:41:36;;;;;;;;;;;;;;;;;;4900085;29;19944;-76
2022/02/24 03:44:02;;;;;;;;;;;;;;;;;;4899469;29;20388;-76
2022/02/24 03:46:28;;;;;;;;;;;;;;;;;;4884005;29;19987;-76
2022/02/24 03:48:54;;;;;;;;;;;;;;;;;;4899864;29;19969;-76
2022/02/24 03:51:20;;;;;;;;;;;;;;;;;;4899802;29;19944;-76
2022/02/24 03:53:46;;;;;;;;;;;;;;;;;;4900091;29;19942;-77
2022/02/24 03:56:12;;;;;;;;;;;;;;;;;;4899728;29;19965;-76
2022/02/24 03:58:38;;;;;;;;;;;;;;;;;;4899129;29;20036;-76
2022/02/24 04:01:04;;;;;;;;;;;;;;;;;;4900220;29;19969;-76
2022/02/24 04:03:30;;;;;;;;;;;;;;;;;;4884040;29;19983;-76
2022/02/24 04:05:56;;;;;;;;;;;;;;;;;;4899919;29;19942;-77
2022/02/24 04:08:22;;;;;;;;;;;;;;;;;;4899235;29;19951;-76
2022/02/24 04:10:48;;;;;;;;;;;;;;;;;;4900132;29;20035;-76
2022/02/24 04:13:14;;;;;;;;;;;;;;;;;;4899816;29;20402;-76
2022/02/24 04:15:40;;;;;;;;;;;;;;;;;;4883461;29;19963;-76
2022/02/24 04:18:05;;;;;;;;;;;;;;;;;;4883609;29;19939;-76
2022/02/24 04:20:31;;;;;;;;;;;;;;;;;;4899321;29;20338;-76
2022/02/24 04:22:57;;;;;;;;;;;;;;;;;;4899990;29;20259;-76
2022/02/24 04:25:23;;;;;;;;;;;;;;;;;;4899013;29;19940;-76
2022/02/24 04:27:49;;;;;;;;;;;;;;;;;;4899291;29;20003;-76
2022/02/24 04:30:15;;;;;;;;;;;;;;;;;;4899999;29;20009;-76
2022/02/24 04:32:41;;;;;;;;;;;;;;;;;;4899235;29;20006;-76
2022/02/24 04:35:07;;;;;;;;;;;;;;;;;;4884119;29;20059;-76
2022/02/24 04:37:33;;;;;;;;;;;;;;;;;;4899227;29;19953;-76
2022/02/24 04:39:59;;;;;;;;;;;;;;;;;;4884105;29;19943;-76
2022/02/24 04:42:25;;;;;;;;;;;;;;;;;;4898938;29;20009;-76
2022/02/24 04:44:51;;;;;;;;;;;;;;;;;;4899323;29;19957;-76
2022/02/24 04:47:17;;;;;;;;;;;;;;;;;;4899330;29;20052;-77
2022/02/24 04:49:43;;;;;;;;;;;;;;;;;;4898612;29;19966;-76
2022/02/24 04:52:09;;;;;;;;;;;;;;;;;;4883988;29;20363;-76
2022/02/24 04:54:35;;;;;;;;;;;;;;;;;;4883685;29;19944;-76
2022/02/24 04:57:01;;;;;;;;;;;;;;;;;;4898716;29;20051;-76
2022/02/24 04:59:27;;;;;;;;;;;;;;;;;;4883763;29;19942;-76
2022/02/24 05:01:53;;;;;;;;;;;;;;;;;;4899068;29;20394;-75
2022/02/24 05:04:19;;;;;;;;;;;;;;;;;;4899571;29;20305;-76
2022/02/24 05:06:45;;;;;;;;;;;;;;;;;;4898681;29;19998;-76
2022/02/24 05:09:11;;;;;;;;;;;;;;;;;;4899118;29;19941;-76
2022/02/24 05:11:37;;;;;;;;;;;;;;;;;;4883201;29;20432;-76
2022/02/24 05:14:03;;;;;;;;;;;;;;;;;;4899509;29;19943;-75
2022/02/24 05:16:29;;;;;;;;;;;;;;;;;;4882844;29;19989;-75
2022/02/24 05:18:55;;;;;;;;;;;;;;;;;;4899124;29;20293;-76
2022/02/24 05:21:21;;;;;;;;;;;;;;;;;;4898796;29;20013;-76
2022/02/24 05:23:47;;;;;;;;;;;;;;;;;;4898531;29;19991;-76
2022/02/24 05:26:13;;;;;;;;;;;;;;;;;;4898609;29;20374;-76
2022/02/24 05:28:39;;;;;;;;;;;;;;;;;;4883157;29;20366;-76
2022/02/24 05:31:05;;;;;;;;;;;;;;;;;;4898679;29;19944;-76
2022/02/24 05:33:31;;;;;;;;;;;;;;;;;;4882526;29;20185;-76
2022/02/24 05:35:57;;;;;;;;;;;;;;;;;;4898105;29;20397;-75
2022/02/24 05:38:23;;;;;;;;;;;;;;;;;;4901875;29;19944;-83
2022/02/24 05:40:49;;;;;;;;;;;;;;;;;;4886862;29;19950;-82
2022/02/24 05:43:15;;;;;;;;;;;;;;;;;;4886831;29;19997;-81
2022/02/24 05:45:42;;;;;;;;;;;;;;;;;;4886244;29;20049;-81
2022/02/24 05:48:08;;;;;;;;;;;;;;;;;;4902516;29;19989;-81
2022/02/24 05:50:34;;;;;;;;;;;;;;;;;;4901999;29;19950;-75
2022/02/24 05:53:02;;;;;;;;;;;;;;;;;;4901176;29;19948;-76
2022/02/24 05:55:28;;;;;;;;;;;;;;;;;;4900846;29;20372;-76
2022/02/24 05:57:54;;;;;;;;;;;;;;;;;;4900902;29;20268;-75
2022/02/24 06:00:20;;;;;;;;;;;;;;;;;;4900761;29;19996;-75
2022/02/24 06:02:46;;;;;;;;;;;;;;;;;;4900960;29;19942;-76
2022/02/24 06:05:12;;;;;;;;;;;;;;;;;;4902030;29;20025;-75
2022/02/24 06:07:38;;;;;;;;;;;;;;;;;;4886502;29;20021;-76
2022/02/24 06:10:04;;;;;;;;;;;;;;;;;;4901953;29;19953;-76
2022/02/24 06:12:30;;;;;;;;;;;;;;;;;;4902034;29;19972;-76
2022/02/24 06:14:56;;;;;;;;;;;;;;;;;;4900650;29;19984;-75
2022/02/24 06:17:22;;;;;;;;;;;;;;;;;;4916694;29;19980;-76
2022/02/24 06:19:48;;;;;;;;;;;;;;;;;;4900242;29;19945;-75
2022/02/24 06:22:14;;;;;;;;;;;;;;;;;;4886658;29;19940;-76
2022/02/24 06:24:39;;;;;;;;;;;;;;;;;;4885286;29;19939;-76
2022/02/24 06:27:05;;;;;;;;;;;;;;;;;;4886098;29;20000;-76
2022/02/24 06:29:31;;;;;;;;;;;;;;;;;;4901322;29;19949;-76
2022/02/24 06:31:57;;;;;;;;;;;;;;;;;;4901871;29;20019;-76
2022/02/24 06:34:23;;;;;;;;;;;;;;;;;;4901749;29;20109;-76
2022/02/24 06:36:49;;;;;;;;;;;;;;;;;;4884226;29;19963;-77
2022/02/24 06:39:16;;;;;;;;;;;;;;;;;;4900715;29;19942;-77
2022/02/24 06:41:41;;;;;;;;;;;;;;;;;;4900329;29;20320;-76
2022/02/24 06:44:09;;;;;;;;;;;;;;;;;;4901147;29;19982;-77
2022/02/24 06:46:35;;;;;;;;;;;;;;;;;;4884005;29;20012;-77
2022/02/24 06:49:01;;;;;;;;;;;;;;;;;;4899517;29;20422;-77
2022/02/24 06:51:27;;;;;;;;;;;;;;;;;;4901152;29;19948;-76
2022/02/24 06:53:53;;;;;;;;;;;;;;;;;;4900349;29;20449;-78
2022/02/24 06:56:19;;;;;;;;;;;;;;;;;;4900571;29;19963;-76
2022/02/24 06:58:45;;;;;;;;;;;;;;;;;;4884700;29;20037;-75
2022/02/24 07:01:11;;;;;;;;;;;;;;;;;;4899946;29;20382;-75
2022/02/24 07:03:37;;;;;;;;;;;;;;;;;;4900846;29;19982;-75
2022/02/24 07:06:03;;;;;;;;;;;;;;;;;;4900936;29;19956;-75
2022/02/24 07:08:29;;;;;;;;;;;;;;;;;;4900971;29;19955;-75
2022/02/24 07:10:55;;;;;;;;;;;;;;;;;;4900726;29;20444;-75
2022/02/24 07:13:21;;;;;;;;;;;;;;;;;;4884660;29;19951;-75
2022/02/24 07:15:47;;;;;;;;;;;;;;;;;;4900050;29;19966;-75
2022/02/24 07:18:13;;;;;;;;;;;;;;;;;;4884717;29;19946;-75
2022/02/24 07:20:39;;;;;;;;;;;;;;;;;;4900395;29;20388;-75
2022/02/24 07:23:05;;;;;;;;;;;;;;;;;;4900385;29;20279;-75
2022/02/24 07:25:31;;;;;;;;;;;;;;;;;;4884211;29;20003;-75
2022/02/24 07:27:57;;;;;;;;;;;;;;;;;;4900390;29;19954;-74
2022/02/24 07:30:23;;;;;;;;;;;;;;;;;;4900963;29;19947;-75
2022/02/24 07:32:49;;;;;;;;;;;;;;;;;;4900540;29;20002;-75
2022/02/24 07:35:14;;;;;;;;;;;;;;;;;;4900682;29;19964;-75
2022/02/24 07:37:40;;;;;;;;;;;;;;;;;;4900053;29;20001;-75
2022/02/24 07:40:06;;;;;;;;;;;;;;;;;;4900694;29;20042;-75
2022/02/24 07:42:34;;;;;;;;;;;;;;;;;;4917100;29;20036;-75
2022/02/24 07:45:00;;;;;;;;;;;;;;;;;;4900251;29;19953;-75
2022/02/24 07:47:26;;;;;;;;;;;;;;;;;;4899358;29;20458;-75
2022/02/24 07:49:52;;;;;;;;;;;;;;;;;;4898776;29;20335;-75
2022/02/24 07:52:18;;;;;;;;;;;;;;;;;;4900087;29;19949;-75
2022/02/24 07:54:44;;;;;;;;;;;;;;;;;;4899769;29;19948;-75
2022/02/24 07:57:10;;;;;;;;;;;;;;;;;;4899768;29;19967;-75
2022/02/24 07:59:36;;;;;;;;;;;;;;;;;;4899473;29;19957;-75
2022/02/24 08:02:02;;;;;;;;;;;;;;;;;;4899050;29;20367;-75
2022/02/24 08:04:28;;;;;;;;;;;;;;;;;;4899697;29;20013;-75
2022/02/24 08:06:54;;;;;;;;;;;;;;;;;;4883632;29;19950;-75
2022/02/24 08:09:20;;;;;;;;;;;;;;;;;;4899235;29;19952;-75
2022/02/24 08:14:35;;;;;;;;;;;;;;;;;;4864212;29;19947;-75
2022/02/24 08:17:01;;;;;;;;;;;;;;;;;;4898667;29;19966;-75
2022/02/24 08:19:27;;;;;;;;;;;;;;;;;;4899546;29;19948;-75
2022/02/24 08:21:53;;;;;;;;;;;;;;;;;;4883730;29;19999;-75
2022/02/24 08:24:19;;;;;;;;;;;;;;;;;;4899622;29;19992;-75
2022/02/24 08:26:44;;;;;;;;;;;;;;;;;;4898890;29;19947;-75
2022/02/24 08:29:10;;;;;;;;;;;;;;;;;;4899413;29;19946;-77
2022/02/24 08:31:36;;;;;;;;;;;;;;;;;;4883315;29;19946;-78
2022/02/24 08:34:02;;;;;;;;;;;;;;;;;;4899582;29;19946;-79
2022/02/24 08:36:30;;;;;;;;;;;;;;;;;;4899019;29;19963;-81
2022/02/24 08:38:56;;;;;;;;;;;;;;;;;;4898424;29;19950;-77
2022/02/24 08:41:22;;;;;;;;;;;;;;;;;;4898966;29;19943;-78
2022/02/24 08:43:48;;;;;;;;;;;;;;;;;;4897738;29;20006;-77
2022/02/24 08:46:14;;;;;;;;;;;;;;;;;;4882055;29;19948;-77
2022/02/24 08:48:41;;;;;;;;;;;;;;;;;;4894334;29;20018;-78
2022/02/24 08:51:07;;;;;;;;;;;;;;;;;;4894775;29;20338;-76
2022/02/24 08:53:32;;;;;;;;;;;;;;;;;;4879909;29;19962;-79
2022/02/24 08:55:58;;;;;;;;;;;;;;;;;;4894196;29;19969;-78
2022/02/24 08:58:24;;;;;;;;;;;;;;;;;;4895277;29;19949;-78
2022/02/24 09:00:51;;;;;;;;;;;;;;;;;;4895119;29;19996;-79
2022/02/24 09:03:17;;;;;;;;;;;;;;;;;;4895738;29;20041;-76
2022/02/24 09:05:44;;;;;;;;;;;;;;;;;;4894968;29;20037;-78
2022/02/24 09:08:10;;;;;;;;;;;;;;;;;;4894409;29;20036;-78
2022/02/24 09:10:36;;;;;;;;;;;;;;;;;;4879018;29;20066;-78
2022/02/24 09:13:02;;;;;;;;;;;;;;;;;;4881324;29;19988;-77
2022/02/24 09:15:31;;;;;;;;;;;;;;;;;;4898208;29;19966;-79
2022/02/24 09:17:57;;;;;;;;;;;;;;;;;;4899525;29;19954;-79
2022/02/24 09:20:23;;;;;;;;;;;;;;;;;;4899743;29;19943;-79
2022/02/24 09:22:49;;;;;;;;;;;;;;;;;;4884093;29;20404;-79
2022/02/24 09:25:15;;;;;;;;;;;;;;;;;;4899259;29;20040;-79
2022/02/24 09:27:41;;;;;;;;;;;;;;;;;;4899357;29;19954;-79
2022/02/24 09:30:07;;;;;;;;;;;;;;;;;;4899104;29;20316;-79
2022/02/24 09:32:34;;;;;;;;;;;;;;;;;;4899601;29;20277;-78
2022/02/24 09:35:00;;;;;;;;;;;;;;;;;;4884013;29;20381;-78
2022/02/24 09:37:27;;;;;;;;;;;;;;;;;;4899047;29;19974;-78
2022/02/24 09:39:53;;;;;;;;;;;;;;;;;;4883590;29;20460;-80
2022/02/24 09:42:19;;;;;;;;;;;;;;;;;;4899373;29;19946;-77
2022/02/24 09:44:45;;;;;;;;;;;;;;;;;;4899208;29;20388;-79
2022/02/24 09:47:11;;;;;;;;;;;;;;;;;;4898850;29;19996;-79
2022/02/24 09:49:37;;;;;;;;;;;;;;;;;;4873848;29;19968;-78
2022/02/24 09:52:03;;;;;;;;;;;;;;;;;;4883040;29;19987;-78
2022/02/24 09:54:29;;;;;;;;;;;;;;;;;;4883940;29;20379;-79
2022/02/24 09:56:55;;;;;;;;;;;;;;;;;;4867571;29;19965;-78
2022/02/24 09:59:22;;;;;;;;;;;;;;;;;;4868416;29;19970;-79
2022/02/24 10:01:48;;;;;;;;;;;;;;;;;;4868281;29;19970;-78
2022/02/24 10:04:14;;;;;;;;;;;;;;;;;;4880896;29;20360;-83
2022/02/24 10:06:40;;;;;;;;;;;;;;;;;;4883917;29;19947;-80
2022/02/24 10:09:07;;;;;;;;;;;;;;;;;;4883489;29;19948;-81
2022/02/24 10:11:34;;;;;;;;;;;;;;;;;;4868645;29;20384;-82
2022/02/24 10:14:00;;;;;;;;;;;;;;;;;;4867291;29;20393;-81
2022/02/24 10:16:26;;;;;;;;;;;;;;;;;;4883737;29;20413;-82
2022/02/24 10:18:52;;;;;;;;;;;;;;;;;;4882785;29;19950;-82
2022/02/24 10:21:20;;;;;;;;;;;;;;;;;;4883333;29;19952;-80
2022/02/24 10:23:46;;;;;;;;;;;;;;;;;;4882674;29;20376;-81
2022/02/24 10:26:12;;;;;;;;;;;;;;;;;;4867575;29;19999;-82
2022/02/24 10:28:38;;;;;;;;;;;;;;;;;;4868452;29;20410;-81
2022/02/24 10:31:04;;;;;;;;;;;;;;;;;;4869180;29;19943;-83
2022/02/24 10:33:30;;;;;;;;;;;;;;;;;;4869523;29;19960;-86
2022/02/24 10:35:56;;;;;;;;;;;;;;;;;;4889784;29;20053;-88
2022/02/24 10:38:22;;;;;;;;;;;;;;;;;;4871747;29;20300;-86
2022/02/24 10:40:48;;;;;;;;;;;;;;;;;;4868739;29;19956;-82
2022/02/24 10:43:14;;;;;;;;;;;;;;;;;;4867193;29;20370;-78
2022/02/24 10:45:40;;;;;;;;;;;;;;;;;;4867084;29;19946;-79
2022/02/24 10:48:06;;;;;;;;;;;;;;;;;;4867116;29;19942;-79
2022/02/24 10:50:32;;;;;;;;;;;;;;;;;;4901138;29;19974;-79
2022/02/24 10:52:58;;;;;;;;;;;;;;;;;;4900654;29;19970;-81
2022/02/24 10:55:24;;;;;;;;;;;;;;;;;;4885632;29;19994;-81
2022/02/24 10:57:50;;;;;;;;;;;;;;;;;;4901368;29;19950;-80
2022/02/24 11:00:16;;;;;;;;;;;;;;;;;;4885044;29;20035;-81
2022/02/24 11:02:42;;;;;;;;;;;;;;;;;;4885497;29;19996;-83
2022/02/24 11:05:08;;;;;;;;;;;;;;;;;;4900493;29;19960;-80
2022/02/24 11:07:34;;;;;;;;;;;;;;;;;;4901840;29;19949;-88
2022/02/24 11:10:00;;;;;;;;;;;;;;;;;;4901038;29;19995;-84
2022/02/24 11:12:28;;;;;;;;;;;;;;;;;;4885464;29;19956;-86
2022/02/24 11:14:54;;;;;;;;;;;;;;;;;;4901462;29;19943;-88
2022/02/24 11:17:20;;;;;;;;;;;;;;;;;;4901271;29;20028;-86
2022/02/24 11:19:46;;;;;;;;;;;;;;;;;;4901623;29;20036;-82
2022/02/24 11:22:12;;;;;;;;;;;;;;;;;;4900928;29;19953;-83
2022/02/24 11:24:38;;;;;;;;;;;;;;;;;;4903462;29;19995;-89
2022/02/24 11:27:04;;;;;;;;;;;;;;;;;;4902499;29;20244;-83
2022/02/24 11:29:30;;;;;;;;;;;;;;;;;;4885885;29;19947;-85
2022/02/24 11:31:56;;;;;;;;;;;;;;;;;;4884805;29;19946;-83
2022/02/24 11:34:22;;;;;;;;;;;;;;;;;;4901025;29;20038;-83
2022/02/24 11:36:48;;;;;;;;;;;;;;;;;;4917971;29;20026;-84
2022/02/24 11:39:14;;;;;;;;;;;;;;;;;;4901033;29;19972;-83
2022/02/24 11:41:40;;;;;;;;;;;;;;;;;;4887592;29;20023;-91
2022/02/24 11:44:06;;;;;;;;;;;;;;;;;;4887433;29;20021;-93
2022/02/24 11:46:32;;;;;;;;;;;;;;;;;;4902850;29;19998;-92
2022/02/24 11:48:58;;;;;;;;;;;;;;;;;;4886958;29;19978;-91
2022/02/24 11:51:24;;;;;;;;;;;;;;;;;;4901866;29;20037;-82
2022/02/24 11:53:52;;;;;;;;;;;;;;;;;;4885688;29;19969;-84
2022/02/24 11:56:18;;;;;;;;;;;;;;;;;;4886010;29;20118;-84
2022/02/24 11:58:44;;;;;;;;;;;;;;;;;;4900959;29;19998;-86
2022/02/24 12:01:10;;;;;;;;;;;;;;;;;;4901166;29;19944;-84
2022/02/24 12:03:36;;;;;;;;;;;;;;;;;;4901103;29;20002;-85
2022/02/24 12:06:02;;;;;;;;;;;;;;;;;;4900880;29;20023;-85
2022/02/24 12:08:28;;;;;;;;;;;;;;;;;;4886065;29;19959;-84
2022/02/24 12:10:54;;;;;;;;;;;;;;;;;;4885706;29;19942;-82
2022/02/24 12:13:20;;;;;;;;;;;;;;;;;;4884753;29;19945;-85
2022/02/24 12:15:46;;;;;;;;;;;;;;;;;;4900588;29;19966;-87
2022/02/24 12:18:12;;;;;;;;;;;;;;;;;;4899960;29;20373;-84
2022/02/24 12:20:38;;;;;;;;;;;;;;;;;;4900238;29;20293;-83
2022/02/24 12:23:03;;;;;;;;;;;;;;;;;;4884769;29;20313;-85
2022/02/24 12:25:30;;;;;;;;;;;;;;;;;;4886042;29;19952;-90
2022/02/24 12:27:56;;;;;;;;;;;;;;;;;;4901284;29;19944;-87
2022/02/24 12:30:22;;;;;;;;;;;;;;;;;;4900459;29;19971;-84
2022/02/24 12:32:48;;;;;;;;;;;;;;;;;;4886313;29;19948;-88
2022/02/24 12:35:14;;;;;;;;;;;;;;;;;;4884498;29;20011;-80
2022/02/24 12:37:40;;;;;;;;;;;;;;;;;;4900162;29;19952;-84
2022/02/24 12:40:06;;;;;;;;;;;;;;;;;;4884341;29;19975;-86
2022/02/24 12:42:32;;;;;;;;;;;;;;;;;;4900936;29;20003;-86
2022/02/24 12:44:58;;;;;;;;;;;;;;;;;;4900851;29;20043;-85
2022/02/24 12:47:26;;;;;;;;;;;;;;;;;;4899195;29;19950;-86
2022/02/24 12:49:57;;;;;;;;;;;;;;;;;;4897347;29;20009;-86
2022/02/24 12:52:23;;;;;;;;;;;;;;;;;;4883342;29;20009;-91
2022/02/24 12:54:49;;;;;;;;;;;;;;;;;;4884341;29;20415;-92
2022/02/24 12:57:15;;;;;;;;;;;;;;;;;;4896651;29;20018;-87
2022/02/24 12:59:41;;;;;;;;;;;;;;;;;;4899220;29;19950;-91
2022/02/24 13:02:07;;;;;;;;;;;;;;;;;;4885498;29;19953;-92
2022/02/24 13:04:34;;;;;;;;;;;;;;;;;;4882706;29;19956;-86
2022/02/24 13:07:00;;;;;;;;;;;;;;;;;;4882420;29;19996;-90
2022/02/24 13:09:46;;;;;;;;;;;;;;;;;;4884373;29;19948;-91
2022/02/24 13:12:12;;;;;;;;;;;;;;;;;;4884293;29;19945;-89
2022/02/24 13:14:38;;;;;;;;;;;;;;;;;;4881852;29;19955;-85
2022/02/24 13:17:08;;;;;;;;;;;;;;;;;;4880901;29;19974;-82
2022/02/24 13:19:34;;;;;;;;;;;;;;;;;;4884094;29;19959;-93
2022/02/24 13:22:01;;;;;;;;;;;;;;;;;;4884572;29;19950;-94
2022/02/24 13:24:27;;;;;;;;;;;;;;;;;;4884044;29;19951;-80
2022/02/24 13:26:53;;;;;;;;;;;;;;;;;;4896801;29;19945;-80
2022/02/24 13:29:20;;;;;;;;;;;;;;;;;;4880278;29;19962;-85
2022/02/24 13:31:46;;;;;;;;;;;;;;;;;;4881290;29;19950;-84
2022/02/24 13:34:12;;;;;;;;;;;;;;;;;;4879944;29;19956;-82
2022/02/24 13:36:38;;;;;;;;;;;;;;;;;;4895760;29;20130;-83
2022/02/24 13:39:04;;;;;;;;;;;;;;;;;;4896086;29;19944;-80
2022/02/24 13:41:30;;;;;;;;;;;;;;;;;;4880050;29;19947;-81
2022/02/24 13:43:56;;;;;;;;;;;;;;;;;;4895967;29;19949;-80
2022/02/24 13:46:22;;;;;;;;;;;;;;;;;;4895780;29;20039;-80
2022/02/24 13:48:49;;;;;;;;;;;;;;;;;;4879442;29;19976;-83
2022/02/24 13:51:17;;;;;;;;;;;;;;;;;;4880697;29;19945;-86
2022/02/24 13:53:43;;;;;;;;;;;;;;;;;;4865960;29;19955;-85
2022/02/24 13:56:09;;;;;;;;;;;;;;;;;;4862664;29;20114;-87
2022/02/24 13:58:35;;;;;;;;;;;;;;;;;;4867963;29;19950;-93
2022/02/24 14:01:01;;;;;;;;;;;;;;;;;;4887209;29;19953;-92
2022/02/24 14:03:27;;;;;;;;;;;;;;;;;;4871199;29;19944;-94
2022/02/24 14:05:53;;;;;;;;;;;;;;;;;;4871427;29;19993;-93
2022/02/24 14:08:19;;;;;;;;;;;;;;;;;;4871298;29;19951;-93
2022/02/24 14:10:45;;;;;;;;;;;;;;;;;;4885777;29;19950;-90
2022/02/24 14:13:11;;;;;;;;;;;;;;;;;;4886124;29;19957;-91
2022/02/24 14:15:37;;;;;;;;;;;;;;;;;;4870709;29;20032;-95
2022/02/24 14:18:03;;;;;;;;;;;;;;;;;;4869634;29;19950;-91
2022/02/24 14:20:29;;;;;;;;;;;;;;;;;;4884225;29;19965;-84
2022/02/24 14:22:55;;;;;;;;;;;;;;;;;;4868676;29;19948;-89
2022/02/24 14:25:21;;;;;;;;;;;;;;;;;;4870591;29;20271;-89
2022/02/24 14:27:47;;;;;;;;;;;;;;;;;;4869511;29;20034;-88
2022/02/24 14:30:13;;;;;;;;;;;;;;;;;;4868408;29;19994;-82
2022/02/24 14:32:39;;;;;;;;;;;;;;;;;;4883814;29;19963;-82
2022/02/24 14:35:05;;;;;;;;;;;;;;;;;;4867653;29;20387;-82
2022/02/24 14:37:31;;;;;;;;;;;;;;;;;;4867239;29;20026;-80
2022/02/24 14:39:57;;;;;;;;;;;;;;;;;;4882666;29;20011;-81
2022/02/24 14:42:28;;;;;;;;;;;;;;;;;;4867280;29;19958;-80
2022/02/24 14:44:54;;;;;;;;;;;;;;;;;;4867727;29;19990;-80
2022/02/24 14:47:20;;;;;;;;;;;;;;;;;;4867250;29;19960;-85
2022/02/24 14:49:46;;;;;;;;;;;;;;;;;;4876170;29;19979;-83
2022/02/24 14:52:12;;;;;;;;;;;;;;;;;;4899353;29;19950;-89
2022/02/24 14:54:38;;;;;;;;;;;;;;;;;;4884465;29;19953;-86
2022/02/24 14:57:05;;;;;;;;;;;;;;;;;;4898608;29;19971;-86
2022/02/24 14:59:31;;;;;;;;;;;;;;;;;;4883130;29;19953;-86
2022/02/24 15:01:56;;;;;;;;;;;;;;;;;;4883602;29;19953;-86
2022/02/24 15:04:22;;;;;;;;;;;;;;;;;;4899362;29;20049;-93
2022/02/24 15:06:48;;;;;;;;;;;;;;;;;;4900787;29;19956;-93
2022/02/24 15:09:14;;;;;;;;;;;;;;;;;;4899495;29;19950;-86
2022/02/24 15:11:41;;;;;;;;;;;;;;;;;;4884990;29;19948;-91
2022/02/24 15:14:07;;;;;;;;;;;;;;;;;;4885186;29;20319;-91
2022/02/24 15:16:33;;;;;;;;;;;;;;;;;;4885019;29;19982;-89
2022/02/24 15:18:59;;;;;;;;;;;;;;;;;;4899887;29;20435;-88
2022/02/24 15:21:25;;;;;;;;;;;;;;;;;;4899507;29;20278;-83
2022/02/24 15:23:51;;;;;;;;;;;;;;;;;;4899562;29;19947;-85
2022/02/24 15:26:17;;;;;;;;;;;;;;;;;;4899154;29;19956;-85
2022/02/24 15:28:45;;;;;;;;;;;;;;;;;;4883920;29;19963;-89
2022/02/24 15:31:11;;;;;;;;;;;;;;;;;;4883830;29;20008;-87
2022/02/24 15:33:37;;;;;;;;;;;;;;;;;;4898874;29;20084;-85
2022/02/24 15:36:03;;;;;;;;;;;;;;;;;;4898342;29;20419;-83
2022/02/24 15:38:29;;;;;;;;;;;;;;;;;;4898383;29;20255;-91
2022/02/24 15:40:55;;;;;;;;;;;;;;;;;;4898498;29;19948;-85
2022/02/24 15:43:21;;;;;;;;;;;;;;;;;;4881906;29;19957;-82
2022/02/24 15:45:47;;;;;;;;;;;;;;;;;;4897608;29;19949;-83
2022/02/24 15:48:13;;;;;;;;;;;;;;;;;;4898496;29;19944;-91
2022/02/24 15:50:39;;;;;;;;;;;;;;;;;;4869992;29;20400;-84
2022/02/24 15:53:05;;;;;;;;;;;;;;;;;;4881901;29;19998;-80
2022/02/24 15:55:31;;;;;;;;;;;;;;;;;;4865636;29;20334;-79
2022/02/24 15:57:57;;;;;;;;;;;;;;;;;;4881754;29;20003;-86
2022/02/24 16:00:23;;;;;;;;;;;;;;;;;;4882052;29;19952;-84
2022/02/24 16:02:49;;;;;;;;;;;;;;;;;;4866108;29;20389;-84
2022/02/24 16:05:15;;;;;;;;;;;;;;;;;;4866503;29;20439;-83
2022/02/24 16:07:41;;;;;;;;;;;;;;;;;;4865939;29;20096;-84
2022/02/24 16:10:07;;;;;;;;;;;;;;;;;;4865885;29;20045;-84
2022/02/24 16:12:33;;;;;;;;;;;;;;;;;;4881412;29;19977;-87
2022/02/24 16:15:00;;;;;;;;;;;;;;;;;;4867155;29;19956;-85
2022/02/24 16:17:26;;;;;;;;;;;;;;;;;;4866295;29;19965;-88
2022/02/24 16:19:52;;;;;;;;;;;;;;;;;;4867495;29;19955;-89
2022/02/24 16:22:18;;;;;;;;;;;;;;;;;;4865936;29;19954;-86
2022/02/24 16:24:44;;;;;;;;;;;;;;;;;;4881166;29;19957;-84
2022/02/24 16:27:10;;;;;;;;;;;;;;;;;;4881841;29;19953;-86
2022/02/24 16:29:36;;;;;;;;;;;;;;;;;;4881121;29;19956;-85
2022/02/24 16:32:02;;;;;;;;;;;;;;;;;;4865720;29;20026;-83
2022/02/24 16:34:28;;;;;;;;;;;;;;;;;;4880803;29;20373;-84
2022/02/24 16:36:54;;;;;;;;;;;;;;;;;;4880709;29;19961;-83
2022/02/24 16:39:20;;;;;;;;;;;;;;;;;;4881105;29;19951;-83